OAL166 LGAV-LGIO
Flight info
| Callsign | OAL166 |
|---|---|
| Flight time | 0h 51m |
| Altitude | 18000 |
| Route | KOR1E KOR L53 GARTA L611 IBTIN IBTIN1D |
| Aircraft | AT76/M-SDE3L/L |
Departure
| Time | 2026-05-05 17:29 |
|---|---|
| Airport | Athens Eleftherios Venizelos International Airport (LGAV) |
Arrival
| Time | 2026-05-05 18:20 |
|---|---|
| Airport | Ioannina King Pyrrhus National Airport (LGIO) |
| Time | Latitude | Longitude | Altitude | Speed | Heading |
|---|---|---|---|---|---|
| 2026-05-05 16:54 | 37.94360 | 23.95348 | 297 ft | 0 kts | 37° |
| 2026-05-05 17:13 | 37.94364 | 23.95351 | 301 ft | 3 kts | 37° |
| 2026-05-05 17:13 | 37.94381 | 23.95382 | 297 ft | 4 kts | 81° |
| 2026-05-05 17:13 | 37.94375 | 23.95417 | 299 ft | 5 kts | 114° |
| 2026-05-05 17:14 | 37.94354 | 23.95457 | 299 ft | 7 kts | 126° |
| 2026-05-05 17:14 | 37.94322 | 23.95513 | 298 ft | 9 kts | 126° |
| 2026-05-05 17:14 | 37.94282 | 23.95581 | 297 ft | 10 kts | 127° |
| 2026-05-05 17:14 | 37.94234 | 23.95653 | 296 ft | 11 kts | 149° |
| 2026-05-05 17:15 | 37.94177 | 23.95637 | 299 ft | 8 kts | 213° |
| 2026-05-05 17:15 | 37.94133 | 23.95610 | 296 ft | 7 kts | 187° |
| 2026-05-05 17:15 | 37.94093 | 23.95625 | 295 ft | 7 kts | 151° |
| 2026-05-05 17:15 | 37.94057 | 23.95645 | 296 ft | 6 kts | 175° |
| 2026-05-05 17:16 | 37.94019 | 23.95629 | 294 ft | 6 kts | 218° |
| 2026-05-05 17:16 | 37.93969 | 23.95582 | 296 ft | 11 kts | 212° |
| 2026-05-05 17:16 | 37.93895 | 23.95513 | 294 ft | 15 kts | 216° |
| 2026-05-05 17:16 | 37.93801 | 23.95424 | 296 ft | 18 kts | 216° |
| 2026-05-05 17:17 | 37.93692 | 23.95323 | 296 ft | 20 kts | 216° |
| 2026-05-05 17:17 | 37.93575 | 23.95211 | 296 ft | 22 kts | 217° |
| 2026-05-05 17:17 | 37.93534 | 23.95172 | 295 ft | 20 kts | 217° |
| 2026-05-05 17:17 | 37.93527 | 23.95166 | 298 ft | 20 kts | 215° |
| 2026-05-05 17:18 | 37.93519 | 23.95159 | 297 ft | 21 kts | 214° |
| 2026-05-05 17:18 | 37.93511 | 23.95153 | 294 ft | 21 kts | 213° |
| 2026-05-05 17:18 | 37.93503 | 23.95147 | 294 ft | 23 kts | 206° |
| 2026-05-05 17:18 | 37.93493 | 23.95142 | 297 ft | 24 kts | 197° |
| 2026-05-05 17:19 | 37.93483 | 23.95139 | 295 ft | 26 kts | 189° |
| 2026-05-05 17:19 | 37.93471 | 23.95139 | 296 ft | 28 kts | 176° |
| 2026-05-05 17:19 | 37.93460 | 23.95141 | 294 ft | 20 kts | 167° |
| 2026-05-05 17:19 | 37.93454 | 23.95144 | 295 ft | 7 kts | 161° |
| 2026-05-05 17:20 | 37.93455 | 23.95143 | 295 ft | 2 kts | 162° |
| 2026-05-05 17:20 | 37.93456 | 23.95143 | 293 ft | 1 kts | 162° |
| 2026-05-05 17:21 | 37.93454 | 23.95144 | 295 ft | 5 kts | 159° |
| 2026-05-05 17:21 | 37.93452 | 23.95145 | 294 ft | 3 kts | 153° |
| 2026-05-05 17:22 | 37.93453 | 23.95145 | 294 ft | 2 kts | 152° |
| 2026-05-05 17:22 | 37.93454 | 23.95144 | 295 ft | 3 kts | 154° |
| 2026-05-05 17:22 | 37.93455 | 23.95143 | 293 ft | 3 kts | 157° |
| 2026-05-05 17:23 | 37.93456 | 23.95143 | 297 ft | 2 kts | 157° |
| 2026-05-05 17:23 | 37.93455 | 23.95144 | 293 ft | 8 kts | 155° |
| 2026-05-05 17:23 | 37.93451 | 23.95147 | 293 ft | 12 kts | 146° |
| 2026-05-05 17:24 | 37.93444 | 23.95155 | 295 ft | 16 kts | 131° |
| 2026-05-05 17:24 | 37.93440 | 23.95164 | 295 ft | 1 kts | 118° |
| 2026-05-05 17:24 | 37.93440 | 23.95163 | 295 ft | 2 kts | 111° |
| 2026-05-05 17:24 | 37.93441 | 23.95160 | 294 ft | 1 kts | 114° |
| 2026-05-05 17:25 | 37.93440 | 23.95165 | 295 ft | 3 kts | 105° |
| 2026-05-05 17:25 | 37.93440 | 23.95172 | 294 ft | 7 kts | 92° |
| 2026-05-05 17:25 | 37.93449 | 23.95206 | 292 ft | 0 kts | 65° |
| 2026-05-05 17:27 | 37.93451 | 23.95210 | 291 ft | 3 kts | 67° |
| 2026-05-05 17:27 | 37.93458 | 23.95233 | 292 ft | 8 kts | 66° |
| 2026-05-05 17:27 | 37.93472 | 23.95273 | 290 ft | 12 kts | 67° |
| 2026-05-05 17:27 | 37.93490 | 23.95335 | 282 ft | 17 kts | 70° |
| 2026-05-05 17:28 | 37.93520 | 23.95406 | 280 ft | 20 kts | 58° |
| 2026-05-05 17:28 | 37.93580 | 23.95482 | 279 ft | 34 kts | 38° |
| 2026-05-05 17:28 | 37.93817 | 23.95711 | 276 ft | 83 kts | 36° |
| 2026-05-05 17:28 | 37.94439 | 23.96292 | 349 ft | 131 kts | 36° |
| 2026-05-05 17:29 | 37.95177 | 23.96959 | 957 ft | 129 kts | 34° |
| 2026-05-05 17:29 | 37.95957 | 23.97684 | 1378 ft | 145 kts | 36° |
| 2026-05-05 17:29 | 37.96743 | 23.98475 | 2068 ft | 145 kts | 34° |
| 2026-05-05 17:29 | 37.97586 | 23.99209 | 2661 ft | 149 kts | 34° |
| 2026-05-05 17:30 | 37.98404 | 24.00029 | 3313 ft | 150 kts | 36° |
| 2026-05-05 17:30 | 37.99203 | 24.00866 | 3968 ft | 149 kts | 35° |
| 2026-05-05 17:30 | 38.00006 | 24.01685 | 4647 ft | 146 kts | 33° |
| 2026-05-05 17:30 | 38.00801 | 24.02472 | 5288 ft | 144 kts | 32° |
| 2026-05-05 17:31 | 38.01597 | 24.03242 | 5927 ft | 143 kts | 31° |
| 2026-05-05 17:31 | 38.02400 | 24.04016 | 6420 ft | 153 kts | 31° |
| 2026-05-05 17:31 | 38.03303 | 24.04864 | 6738 ft | 168 kts | 26° |
| 2026-05-05 17:31 | 38.04423 | 24.05036 | 7172 ft | 169 kts | 338° |
| 2026-05-05 17:32 | 38.05209 | 24.03943 | 7645 ft | 180 kts | 290° |
| 2026-05-05 17:32 | 38.05302 | 24.02344 | 8150 ft | 184 kts | 276° |
| 2026-05-05 17:32 | 38.05297 | 24.00731 | 8671 ft | 186 kts | 275° |
| 2026-05-05 17:32 | 38.05271 | 23.99058 | 9211 ft | 188 kts | 275° |
| 2026-05-05 17:33 | 38.05252 | 23.97409 | 9759 ft | 190 kts | 275° |
| 2026-05-05 17:33 | 38.05241 | 23.95731 | 10261 ft | 190 kts | 275° |
| 2026-05-05 17:33 | 38.05244 | 23.94047 | 10729 ft | 191 kts | 276° |
| 2026-05-05 17:33 | 38.05262 | 23.92353 | 11214 ft | 193 kts | 277° |
| 2026-05-05 17:34 | 38.05290 | 23.90645 | 11699 ft | 194 kts | 276° |
| 2026-05-05 17:34 | 38.05310 | 23.88933 | 12179 ft | 195 kts | 276° |
| 2026-05-05 17:34 | 38.05326 | 23.87201 | 12672 ft | 196 kts | 276° |
| 2026-05-05 17:34 | 38.05347 | 23.85472 | 13161 ft | 197 kts | 276° |
| 2026-05-05 17:35 | 38.05365 | 23.83731 | 13655 ft | 198 kts | 276° |
| 2026-05-05 17:35 | 38.05385 | 23.81989 | 14111 ft | 198 kts | 276° |
| 2026-05-05 17:35 | 38.05405 | 23.80236 | 14546 ft | 198 kts | 276° |
| 2026-05-05 17:35 | 38.05423 | 23.78493 | 14978 ft | 198 kts | 276° |
| 2026-05-05 17:36 | 38.05440 | 23.76757 | 15397 ft | 197 kts | 276° |
| 2026-05-05 17:36 | 38.05460 | 23.75019 | 15830 ft | 196 kts | 276° |
| 2026-05-05 17:36 | 38.05476 | 23.73296 | 16260 ft | 195 kts | 276° |
| 2026-05-05 17:36 | 38.05492 | 23.71584 | 16685 ft | 194 kts | 277° |
| 2026-05-05 17:37 | 38.05511 | 23.69875 | 17102 ft | 193 kts | 276° |
| 2026-05-05 17:37 | 38.05521 | 23.68777 | 17362 ft | 193 kts | 276° |
| 2026-05-05 17:37 | 38.05541 | 23.66514 | 17804 ft | 196 kts | 276° |
| 2026-05-05 17:37 | 38.05570 | 23.64730 | 17950 ft | 208 kts | 277° |
| 2026-05-05 17:38 | 38.05622 | 23.62833 | 18016 ft | 222 kts | 277° |
| 2026-05-05 17:38 | 38.05662 | 23.60813 | 18026 ft | 235 kts | 276° |
| 2026-05-05 17:38 | 38.05681 | 23.58696 | 18036 ft | 245 kts | 275° |
| 2026-05-05 17:38 | 38.05698 | 23.56502 | 18043 ft | 252 kts | 275° |
| 2026-05-05 17:39 | 38.05717 | 23.54243 | 18046 ft | 259 kts | 275° |
| 2026-05-05 17:39 | 38.05737 | 23.51935 | 18039 ft | 263 kts | 275° |
| 2026-05-05 17:39 | 38.05749 | 23.50360 | 18043 ft | 266 kts | 275° |
| 2026-05-05 17:39 | 38.05770 | 23.48024 | 18048 ft | 269 kts | 275° |
| 2026-05-05 17:40 | 38.05789 | 23.45634 | 18044 ft | 272 kts | 275° |
| 2026-05-05 17:40 | 38.05808 | 23.43227 | 18050 ft | 274 kts | 275° |
| 2026-05-05 17:40 | 38.05829 | 23.40810 | 18044 ft | 275 kts | 275° |
| 2026-05-05 17:40 | 38.05849 | 23.38376 | 18040 ft | 276 kts | 274° |
| 2026-05-05 17:41 | 38.05862 | 23.35947 | 18045 ft | 276 kts | 274° |
| 2026-05-05 17:41 | 38.05876 | 23.33508 | 18051 ft | 276 kts | 275° |
| 2026-05-05 17:41 | 38.05896 | 23.31070 | 18048 ft | 276 kts | 275° |
| 2026-05-05 17:41 | 38.05915 | 23.28631 | 18054 ft | 276 kts | 275° |
| 2026-05-05 17:42 | 38.05931 | 23.26195 | 18054 ft | 277 kts | 275° |
| 2026-05-05 17:42 | 38.05953 | 23.23755 | 18057 ft | 274 kts | 276° |
| 2026-05-05 17:42 | 38.06481 | 23.21515 | 18063 ft | 264 kts | 303° |
| 2026-05-05 17:42 | 38.07473 | 23.19556 | 18053 ft | 265 kts | 305° |
| 2026-05-05 17:43 | 38.08435 | 23.17546 | 18059 ft | 267 kts | 302° |
| 2026-05-05 17:43 | 38.09259 | 23.15423 | 18054 ft | 269 kts | 297° |
| 2026-05-05 17:43 | 38.09978 | 23.13235 | 18051 ft | 269 kts | 295° |
| 2026-05-05 17:43 | 38.10678 | 23.11030 | 18056 ft | 269 kts | 295° |
| 2026-05-05 17:44 | 38.11382 | 23.08832 | 18056 ft | 269 kts | 295° |
| 2026-05-05 17:44 | 38.12105 | 23.06638 | 18067 ft | 269 kts | 296° |
| 2026-05-05 17:44 | 38.12838 | 23.04444 | 18061 ft | 269 kts | 296° |
| 2026-05-05 17:44 | 38.13572 | 23.02259 | 18067 ft | 269 kts | 296° |
| 2026-05-05 17:45 | 38.14307 | 23.00072 | 18063 ft | 269 kts | 296° |
| 2026-05-05 17:45 | 38.15041 | 22.97884 | 18065 ft | 269 kts | 296° |
| 2026-05-05 17:45 | 38.15769 | 22.95708 | 18069 ft | 265 kts | 296° |
| 2026-05-05 17:45 | 38.16484 | 22.93572 | 18061 ft | 266 kts | 296° |
| 2026-05-05 17:46 | 38.17211 | 22.91403 | 18071 ft | 267 kts | 296° |
| 2026-05-05 17:46 | 38.17947 | 22.89206 | 18059 ft | 267 kts | 296° |
| 2026-05-05 17:46 | 38.18664 | 22.87059 | 18071 ft | 267 kts | 296° |
| 2026-05-05 17:46 | 38.19392 | 22.84882 | 18064 ft | 268 kts | 296° |
| 2026-05-05 17:47 | 38.20118 | 22.82706 | 18071 ft | 268 kts | 296° |
| 2026-05-05 17:47 | 38.20844 | 22.80528 | 18061 ft | 268 kts | 296° |
| 2026-05-05 17:47 | 38.21570 | 22.78349 | 18072 ft | 267 kts | 296° |
| 2026-05-05 17:47 | 38.22296 | 22.76170 | 18061 ft | 267 kts | 296° |
| 2026-05-05 17:48 | 38.23005 | 22.74037 | 18063 ft | 267 kts | 296° |
| 2026-05-05 17:48 | 38.23743 | 22.71818 | 18069 ft | 267 kts | 296° |
| 2026-05-05 17:48 | 38.24467 | 22.69642 | 18080 ft | 267 kts | 296° |
| 2026-05-05 17:48 | 38.25188 | 22.67467 | 18064 ft | 267 kts | 296° |
| 2026-05-05 17:49 | 38.25908 | 22.65296 | 18072 ft | 266 kts | 296° |
| 2026-05-05 17:49 | 38.26629 | 22.63124 | 18069 ft | 266 kts | 296° |
| 2026-05-05 17:49 | 38.27349 | 22.60950 | 18077 ft | 266 kts | 296° |
| 2026-05-05 17:49 | 38.28066 | 22.58784 | 18076 ft | 266 kts | 296° |
| 2026-05-05 17:50 | 38.28783 | 22.56616 | 18080 ft | 265 kts | 296° |
| 2026-05-05 17:50 | 38.29504 | 22.54447 | 18081 ft | 266 kts | 296° |
| 2026-05-05 17:50 | 38.30220 | 22.52278 | 18079 ft | 265 kts | 296° |
| 2026-05-05 17:50 | 38.30932 | 22.50115 | 18080 ft | 265 kts | 296° |
| 2026-05-05 17:51 | 38.31646 | 22.47947 | 18078 ft | 265 kts | 296° |
| 2026-05-05 17:51 | 38.32358 | 22.45784 | 18082 ft | 265 kts | 296° |
| 2026-05-05 17:51 | 38.33071 | 22.43621 | 18080 ft | 265 kts | 296° |
| 2026-05-05 17:51 | 38.33784 | 22.41454 | 18081 ft | 265 kts | 296° |
| 2026-05-05 17:52 | 38.34494 | 22.39294 | 18080 ft | 264 kts | 296° |
| 2026-05-05 17:52 | 38.35204 | 22.37137 | 18082 ft | 265 kts | 296° |
| 2026-05-05 17:52 | 38.35917 | 22.34972 | 18079 ft | 264 kts | 296° |
| 2026-05-05 17:52 | 38.36614 | 22.32847 | 18075 ft | 263 kts | 296° |
| 2026-05-05 17:53 | 38.37318 | 22.30695 | 18057 ft | 262 kts | 296° |
| 2026-05-05 17:53 | 38.38020 | 22.28556 | 18076 ft | 262 kts | 296° |
| 2026-05-05 17:53 | 38.38717 | 22.26422 | 18053 ft | 260 kts | 296° |
| 2026-05-05 17:53 | 38.39415 | 22.24299 | 18019 ft | 259 kts | 296° |
| 2026-05-05 17:54 | 38.40108 | 22.22177 | 18056 ft | 259 kts | 296° |
| 2026-05-05 17:54 | 38.40478 | 22.21039 | 18071 ft | 259 kts | 296° |
| 2026-05-05 17:54 | 38.40878 | 22.19813 | 18072 ft | 260 kts | 296° |
| 2026-05-05 17:54 | 38.41572 | 22.17689 | 18081 ft | 259 kts | 296° |
| 2026-05-05 17:55 | 38.42263 | 22.15565 | 18085 ft | 259 kts | 296° |
| 2026-05-05 17:55 | 38.42958 | 22.13441 | 18097 ft | 260 kts | 296° |
| 2026-05-05 17:55 | 38.43655 | 22.11306 | 18083 ft | 261 kts | 296° |
| 2026-05-05 17:55 | 38.44346 | 22.09173 | 18102 ft | 260 kts | 296° |
| 2026-05-05 17:56 | 38.45040 | 22.07033 | 18107 ft | 261 kts | 296° |
| 2026-05-05 17:56 | 38.45740 | 22.04894 | 18106 ft | 261 kts | 296° |
| 2026-05-05 17:56 | 38.46424 | 22.02783 | 18081 ft | 261 kts | 296° |
| 2026-05-05 17:56 | 38.47116 | 22.00646 | 18111 ft | 261 kts | 296° |
| 2026-05-05 17:57 | 38.47808 | 21.98504 | 18110 ft | 261 kts | 296° |
| 2026-05-05 17:57 | 38.48505 | 21.96363 | 18113 ft | 262 kts | 296° |
| 2026-05-05 17:57 | 38.49204 | 21.94206 | 18123 ft | 263 kts | 296° |
| 2026-05-05 17:57 | 38.49899 | 21.92051 | 18093 ft | 263 kts | 296° |
| 2026-05-05 17:58 | 38.50597 | 21.89895 | 18110 ft | 262 kts | 295° |
| 2026-05-05 17:58 | 38.51291 | 21.87743 | 18116 ft | 263 kts | 295° |
| 2026-05-05 17:58 | 38.51989 | 21.85579 | 18103 ft | 263 kts | 295° |
| 2026-05-05 17:58 | 38.52713 | 21.83439 | 18114 ft | 259 kts | 301° |
| 2026-05-05 17:59 | 38.53716 | 21.81535 | 18123 ft | 259 kts | 308° |
| 2026-05-05 17:59 | 38.54801 | 21.79699 | 18121 ft | 259 kts | 309° |
| 2026-05-05 17:59 | 38.55880 | 21.77842 | 18121 ft | 260 kts | 307° |
| 2026-05-05 17:59 | 38.56920 | 21.75938 | 18081 ft | 261 kts | 306° |
| 2026-05-05 18:00 | 38.57931 | 21.74020 | 18102 ft | 260 kts | 306° |
| 2026-05-05 18:00 | 38.58946 | 21.72105 | 18107 ft | 260 kts | 306° |
| 2026-05-05 18:00 | 38.59963 | 21.70192 | 18116 ft | 260 kts | 306° |
| 2026-05-05 18:00 | 38.60983 | 21.68277 | 18111 ft | 260 kts | 306° |
| 2026-05-05 18:01 | 38.61984 | 21.66390 | 18114 ft | 260 kts | 306° |
| 2026-05-05 18:01 | 38.62998 | 21.64477 | 18119 ft | 260 kts | 306° |
| 2026-05-05 18:01 | 38.64015 | 21.62564 | 18115 ft | 260 kts | 305° |
| 2026-05-05 18:01 | 38.65031 | 21.60640 | 18112 ft | 260 kts | 306° |
| 2026-05-05 18:02 | 38.66047 | 21.58725 | 18084 ft | 259 kts | 306° |
| 2026-05-05 18:02 | 38.67061 | 21.56811 | 18074 ft | 259 kts | 306° |
| 2026-05-05 18:02 | 38.68071 | 21.54907 | 18076 ft | 259 kts | 306° |
| 2026-05-05 18:02 | 38.69083 | 21.52995 | 18109 ft | 260 kts | 306° |
| 2026-05-05 18:03 | 38.70099 | 21.51076 | 18108 ft | 261 kts | 306° |
| 2026-05-05 18:03 | 38.71118 | 21.49158 | 18105 ft | 261 kts | 306° |
| 2026-05-05 18:03 | 38.72141 | 21.47224 | 18119 ft | 262 kts | 305° |
| 2026-05-05 18:03 | 38.73153 | 21.45288 | 18118 ft | 262 kts | 305° |
| 2026-05-05 18:04 | 38.74176 | 21.43347 | 18116 ft | 263 kts | 306° |
| 2026-05-05 18:04 | 38.75199 | 21.41409 | 18115 ft | 263 kts | 306° |
| 2026-05-05 18:04 | 38.76221 | 21.39471 | 18124 ft | 263 kts | 306° |
| 2026-05-05 18:04 | 38.77243 | 21.37529 | 18119 ft | 263 kts | 306° |
| 2026-05-05 18:05 | 38.78256 | 21.35603 | 18116 ft | 263 kts | 305° |
| 2026-05-05 18:05 | 38.79281 | 21.33655 | 18120 ft | 264 kts | 305° |
| 2026-05-05 18:05 | 38.80306 | 21.31706 | 18117 ft | 264 kts | 305° |
| 2026-05-05 18:05 | 38.81334 | 21.29749 | 18116 ft | 265 kts | 305° |
| 2026-05-05 18:06 | 38.82363 | 21.27790 | 18119 ft | 265 kts | 305° |
| 2026-05-05 18:06 | 38.83058 | 21.26465 | 18118 ft | 265 kts | 305° |
| 2026-05-05 18:06 | 38.84420 | 21.23867 | 18116 ft | 265 kts | 305° |
| 2026-05-05 18:06 | 38.85449 | 21.21902 | 18118 ft | 265 kts | 305° |
| 2026-05-05 18:07 | 38.86479 | 21.19938 | 18120 ft | 265 kts | 305° |
| 2026-05-05 18:07 | 38.87508 | 21.17974 | 18120 ft | 265 kts | 305° |
| 2026-05-05 18:07 | 38.88537 | 21.16009 | 18114 ft | 265 kts | 305° |
| 2026-05-05 18:07 | 38.89565 | 21.14045 | 18117 ft | 265 kts | 305° |
| 2026-05-05 18:08 | 38.90589 | 21.12078 | 18110 ft | 265 kts | 304° |
| 2026-05-05 18:08 | 38.91632 | 21.10086 | 17793 ft | 275 kts | 305° |
| 2026-05-05 18:08 | 38.92709 | 21.08024 | 17408 ft | 282 kts | 304° |
| 2026-05-05 18:08 | 38.93821 | 21.05880 | 17011 ft | 294 kts | 304° |
| 2026-05-05 18:09 | 38.94956 | 21.03710 | 16625 ft | 290 kts | 305° |
| 2026-05-05 18:09 | 38.96082 | 21.01542 | 16243 ft | 294 kts | 305° |
| 2026-05-05 18:09 | 38.97236 | 20.99329 | 15934 ft | 298 kts | 305° |
| 2026-05-05 18:09 | 38.98611 | 20.97476 | 15675 ft | 289 kts | 328° |
| 2026-05-05 18:10 | 39.00433 | 20.96428 | 15428 ft | 286 kts | 341° |
| 2026-05-05 18:10 | 39.02374 | 20.95867 | 15147 ft | 287 kts | 350° |
| 2026-05-05 18:10 | 39.04367 | 20.95538 | 14811 ft | 290 kts | 352° |
| 2026-05-05 18:10 | 39.06368 | 20.95232 | 14478 ft | 291 kts | 352° |
| 2026-05-05 18:11 | 39.08377 | 20.94871 | 14149 ft | 292 kts | 351° |
| 2026-05-05 18:11 | 39.10383 | 20.94453 | 13810 ft | 292 kts | 350° |
| 2026-05-05 18:11 | 39.12392 | 20.94039 | 13514 ft | 291 kts | 351° |
| 2026-05-05 18:11 | 39.14379 | 20.93631 | 13293 ft | 288 kts | 351° |
| 2026-05-05 18:12 | 39.16349 | 20.93226 | 13068 ft | 285 kts | 351° |
| 2026-05-05 18:12 | 39.18301 | 20.92826 | 12850 ft | 284 kts | 351° |
| 2026-05-05 18:12 | 39.20253 | 20.92426 | 12629 ft | 283 kts | 351° |
| 2026-05-05 18:12 | 39.22196 | 20.92027 | 12407 ft | 282 kts | 351° |
| 2026-05-05 18:13 | 39.24137 | 20.91630 | 12186 ft | 282 kts | 351° |
| 2026-05-05 18:13 | 39.26081 | 20.91232 | 11868 ft | 285 kts | 351° |
| 2026-05-05 18:13 | 39.28048 | 20.90828 | 11500 ft | 287 kts | 351° |
| 2026-05-05 18:13 | 39.29985 | 20.90430 | 11146 ft | 284 kts | 351° |
| 2026-05-05 18:14 | 39.31665 | 20.90087 | 10825 ft | 283 kts | 351° |
| 2026-05-05 18:14 | 39.33614 | 20.89685 | 10371 ft | 284 kts | 350° |
| 2026-05-05 18:14 | 39.35560 | 20.89266 | 9875 ft | 284 kts | 351° |
| 2026-05-05 18:14 | 39.37504 | 20.88852 | 9340 ft | 283 kts | 351° |
| 2026-05-05 18:15 | 39.39444 | 20.88442 | 8813 ft | 280 kts | 350° |
| 2026-05-05 18:15 | 39.41360 | 20.88036 | 8304 ft | 277 kts | 350° |
| 2026-05-05 18:15 | 39.43251 | 20.87764 | 7775 ft | 271 kts | 4° |
| 2026-05-05 18:15 | 39.44993 | 20.88418 | 7674 ft | 254 kts | 22° |
| 2026-05-05 18:16 | 39.46525 | 20.89437 | 7645 ft | 240 kts | 28° |
| 2026-05-05 18:16 | 39.47968 | 20.90533 | 7307 ft | 243 kts | 30° |
| 2026-05-05 18:16 | 39.49433 | 20.91653 | 6885 ft | 245 kts | 27° |
| 2026-05-05 18:16 | 39.51048 | 20.92299 | 6475 ft | 243 kts | 9° |
| 2026-05-05 18:17 | 39.52728 | 20.92620 | 6041 ft | 245 kts | 6° |
| 2026-05-05 18:17 | 39.54419 | 20.92912 | 5614 ft | 246 kts | 6° |
| 2026-05-05 18:17 | 39.56120 | 20.92996 | 5333 ft | 239 kts | 357° |
| 2026-05-05 18:17 | 39.57736 | 20.92912 | 5280 ft | 226 kts | 356° |
| 2026-05-05 18:18 | 39.59252 | 20.92713 | 5247 ft | 211 kts | 340° |
| 2026-05-05 18:18 | 39.60467 | 20.91799 | 5233 ft | 197 kts | 322° |
| 2026-05-05 18:18 | 39.61526 | 20.90733 | 5144 ft | 197 kts | 320° |
| 2026-05-05 18:18 | 39.62597 | 20.89594 | 4939 ft | 200 kts | 319° |
| 2026-05-05 18:19 | 39.63699 | 20.88422 | 4508 ft | 212 kts | 320° |
| 2026-05-05 18:19 | 39.64877 | 20.87164 | 3606 ft | 226 kts | 320° |
| 2026-05-05 18:19 | 39.66063 | 20.85893 | 2880 ft | 206 kts | 328° |
| 2026-05-05 18:19 | 39.67241 | 20.85909 | 3000 ft | 161 kts | 34° |
| 2026-05-05 18:20 | 39.67506 | 20.87094 | 2958 ft | 131 kts | 121° |
| 2026-05-05 18:20 | 39.67036 | 20.87567 | 2556 ft | 135 kts | 158° |
| 2026-05-05 18:20 | 39.66600 | 20.87729 | 1551 ft | 0 kts | 171° |